Time;durP1;ratioP1;P1;durP2;ratioP2;P2;SDS_P1;SDS_P2;PMS_P1;PMS_P2;Temp;Humidity;BMP_temperature;BMP_pressure;BME280_temperature;BME280_humidity;BME280_pressure;Samples;Min_cycle;Max_cycle;Signal;HPM_P1;HPM_P2
2022/02/03 00:03:05;;;;;;;5.33;1.93;;;;;;;-0.35;100.00;101126.00;6156463;23;20412;-81
2022/02/03 00:05:44;;;;;;;5.43;2.10;;;;;;;-0.34;100.00;101130.34;6132908;23;20021;-80
2022/02/03 00:11:03;;;;;;;9.00;2.30;;;;;;;-0.31;100.00;101146.03;6153845;23;20025;-80
2022/02/03 00:22:08;;;;;;;8.83;2.50;;;;;;;-0.28;100.00;101164.31;6133084;23;20024;-81
2022/02/03 00:25:33;;;;;;;7.03;1.80;;;;;;;-0.29;100.00;101157.34;6182865;23;20024;-80
2022/02/03 00:28:12;;;;;;;8.10;2.43;;;;;;;-0.28;100.00;101170.38;6162810;23;20029;-81
2022/02/03 00:36:09;;;;;;;6.27;2.17;;;;;;;-0.32;100.00;101167.66;6132230;23;20024;-81
2022/02/03 00:49:40;;;;;;;8.47;1.87;;;;;;;-0.48;100.00;101155.91;6136271;23;20036;-80
2022/02/03 00:52:07;;;;;;;6.07;1.83;;;;;;;-0.49;100.00;101154.13;6108802;23;20076;-78
2022/02/03 00:54:34;;;;;;;6.53;2.07;;;;;;;-0.51;100.00;101150.59;6133606;23;20017;-81
2022/02/03 00:57:05;;;;;;;7.50;1.73;;;;;;;-0.53;100.00;101148.78;6156229;23;20518;-78
2022/02/03 00:59:37;;;;;;;6.10;2.00;;;;;;;-0.55;100.00;101150.44;6132859;23;20021;-80
2022/02/03 01:02:11;;;;;;;6.70;2.50;;;;;;;-0.58;100.00;101154.72;6131857;23;20025;-80
2022/02/03 01:04:40;;;;;;;5.60;1.90;;;;;;;-0.62;100.00;101163.22;6133060;23;20012;-81
2022/02/03 01:07:09;;;;;;;7.33;2.57;;;;;;;-0.62;100.00;101162.34;6131110;23;20021;-78
2022/02/03 01:09:39;;;;;;;5.70;1.87;;;;;;;-0.63;100.00;101160.59;6157753;23;20032;-80
2022/02/03 01:17:34;;;;;;;6.30;2.53;;;;;;;-0.61;100.00;101169.28;6103305;23;20131;-78
2022/02/03 01:20:49;;;;;;;7.47;1.93;;;;;;;-0.63;100.00;101169.25;6133062;23;20361;-80
2022/02/03 01:37:10;;;;;;;10.93;2.07;;;;;;;-0.43;100.00;101153.44;6154772;23;20028;-78
2022/02/03 01:45:21;;;;;;;8.23;2.87;;;;;;;-0.23;100.00;101157.56;6134014;23;20456;-78
2022/02/03 01:48:39;;;;;;;5.50;2.10;;;;;;;-0.23;100.00;101152.34;6134049;23;20108;-80
2022/02/03 01:53:30;;;;;;;13.93;3.70;;;;;;;-0.13;100.00;101151.78;6161094;23;20064;-78
2022/02/03 01:56:04;;;;;;;5.17;2.37;;;;;;;-0.03;100.00;101148.63;6130659;23;20021;-79
2022/02/03 01:58:55;;;;;;;8.30;2.88;;;;;;;0.05;100.00;101148.88;6132461;23;20099;-77
2022/02/03 02:01:30;;;;;;;8.33;3.07;;;;;;;0.06;100.00;101139.34;6136928;23;20024;-82
2022/02/03 02:04:22;;;;;;;7.50;2.83;;;;;;;0.04;100.00;101135.84;6156925;23;20087;-77
2022/02/03 02:07:30;;;;;;;7.30;2.37;;;;;;;0.10;100.00;101136.03;6130020;23;20067;-77
2022/02/03 02:10:28;;;;;;;8.10;2.57;;;;;;;-0.01;100.00;101126.19;6179436;23;20021;-81
2022/02/03 02:13:14;;;;;;;5.93;2.17;;;;;;;-0.01;100.00;101126.19;6138109;23;20024;-77
2022/02/03 02:16:05;;;;;;;7.67;2.40;;;;;;;0.03;100.00;101123.69;6132091;23;20068;-77
2022/02/03 02:39:07;;;;;;;9.77;2.60;;;;;;;0.24;100.00;101119.09;6136577;23;20071;-78
2022/02/03 02:44:06;;;;;;;8.63;3.50;;;;;;;0.20;100.00;101109.47;6132360;23;20029;-78
2022/02/03 02:46:45;;;;;;;11.10;3.43;;;;;;;0.24;100.00;101108.72;6131412;23;20041;-78
2022/02/03 02:50:01;;;;;;;5.60;1.90;;;;;;;0.23;100.00;101109.56;6157179;23;20396;-78
2022/02/03 02:52:38;;;;;;;13.67;3.60;;;;;;;0.28;100.00;101108.84;6067931;23;20022;-78
2022/02/03 02:58:15;;;;;;;10.63;2.77;;;;;;;0.22;100.00;101103.47;6136003;23;20075;-78
2022/02/03 03:01:46;;;;;;;10.03;3.03;;;;;;;0.26;100.00;101091.47;6153730;23;20025;-78
2022/02/03 03:32:01;;;;;;;7.13;2.70;;;;;;;0.31;100.00;101065.59;6130224;23;20025;-79
2022/02/03 03:34:57;;;;;;;12.23;2.93;;;;;;;0.30;100.00;101080.31;6113672;23;20032;-78
2022/02/03 03:37:46;;;;;;;7.30;2.47;;;;;;;0.36;100.00;101080.47;6138350;23;20024;-78
2022/02/03 03:40:12;;;;;;;11.90;3.23;;;;;;;0.35;100.00;101083.03;6135165;23;20053;-79
2022/02/03 03:43:07;;;;;;;9.20;2.73;;;;;;;0.35;100.00;101077.84;6048958;23;20498;-79
2022/02/03 03:45:34;;;;;;;12.73;4.20;;;;;;;0.34;100.00;101089.97;6090912;23;20501;-79
2022/02/03 03:48:06;;;;;;;10.37;2.50;;;;;;;0.36;100.00;101082.19;6069399;23;20026;-79
2022/02/03 03:50:38;;;;;;;9.50;3.03;;;;;;;0.37;100.00;101078.75;6041495;23;20027;-79
2022/02/03 03:53:16;;;;;;;9.50;3.00;;;;;;;0.36;100.00;101079.59;6020573;23;20053;-80
2022/02/03 03:55:57;;;;;;;13.13;2.90;;;;;;;0.34;100.00;101078.66;6039511;23;20026;-79
2022/02/03 04:53:39;;;;;;;5.67;1.97;;;;;;;0.31;100.00;101063.88;6184320;23;20071;-78
2022/02/03 05:03:01;;;;;;;6.07;2.07;;;;;;;0.28;100.00;101043.88;6157892;23;20021;-78
2022/02/03 05:05:50;;;;;;;6.37;2.60;;;;;;;0.24;100.00;101042.03;6166477;23;20025;-79
2022/02/03 05:08:57;;;;;;;6.50;1.90;;;;;;;0.22;100.00;101054.09;6132943;23;20024;-82
2022/02/03 05:12:31;;;;;;;12.33;2.30;;;;;;;0.19;100.00;101058.34;6155061;23;20021;-78
2022/02/03 05:21:45;;;;;;;7.50;2.43;;;;;;;0.17;100.00;101062.59;6134112;23;20449;-78
2022/02/03 05:33:38;;;;;;;6.50;2.80;;;;;;;0.21;100.00;101043.69;6161370;23;20338;-78
2022/02/03 05:42:15;;;;;;;8.80;2.30;;;;;;;0.27;100.00;101042.13;6132164;23;20025;-78
2022/02/03 05:45:08;;;;;;;7.53;2.50;;;;;;;0.29;100.00;101044.78;6132393;23;20465;-81
2022/02/03 05:48:05;;;;;;;3.93;2.10;;;;;;;0.31;100.00;101029.22;6134992;23;20025;-78
2022/02/03 05:51:03;;;;;;;9.10;2.30;;;;;;;0.32;100.00;101031.84;6111492;23;20050;-82
2022/02/03 06:07:26;;;;;;;4.17;2.30;;;;;;;0.40;100.00;101016.47;6132376;23;20621;-78
2022/02/03 06:15:45;;;;;;;12.37;3.03;;;;;;;0.43;100.00;101012.25;6157773;23;20033;-78
2022/02/03 06:23:41;;;;;;;16.07;4.80;;;;;;;0.52;100.00;101009.00;6133339;23;20388;-82
2022/02/03 06:29:01;;;;;;;8.67;4.03;;;;;;;0.55;100.00;100998.66;6160393;23;20083;-78
2022/02/03 06:31:28;;;;;;;13.70;3.73;;;;;;;0.65;100.00;101005.84;6129029;23;20029;-78
2022/02/03 06:33:55;;;;;;;10.13;3.37;;;;;;;0.57;100.00;101009.97;6107952;23;20025;-78
2022/02/03 06:36:22;;;;;;;13.90;3.77;;;;;;;0.61;100.00;101008.34;6105806;23;20021;-78
2022/02/03 06:38:48;;;;;;;16.47;4.47;;;;;;;0.57;100.00;101005.66;6131779;23;20029;-78
2022/02/03 06:41:15;;;;;;;11.67;3.40;;;;;;;0.62;100.00;100991.91;6129441;23;20028;-79
2022/02/03 06:43:43;;;;;;;12.37;3.90;;;;;;;0.60;100.00;100993.59;6156798;23;20031;-79
2022/02/03 06:46:11;;;;;;;8.10;2.90;;;;;;;0.57;100.00;100994.38;6106339;23;20021;-80
2022/02/03 06:48:40;;;;;;;9.90;3.27;;;;;;;0.56;100.00;100992.63;6156093;23;20025;-79
2022/02/03 06:51:13;;;;;;;8.10;2.67;;;;;;;0.61;100.00;100995.34;6129993;23;20068;-78
2022/02/03 06:53:43;;;;;;;8.73;3.05;;;;;;;0.60;100.00;100998.78;6132693;23;20047;-78
2022/02/03 06:56:16;;;;;;;8.77;3.27;;;;;;;0.59;100.00;100997.00;6130127;23;20076;-78
2022/02/03 06:58:49;;;;;;;13.60;3.90;;;;;;;0.60;100.00;100997.06;6133240;23;20032;-78
2022/02/03 07:01:21;;;;;;;7.60;2.67;;;;;;;0.60;100.00;100997.06;6105961;23;20021;-82
2022/02/03 07:03:58;;;;;;;6.27;2.63;;;;;;;0.58;100.00;100993.53;6108595;23;20461;-82
2022/02/03 07:06:25;;;;;;;11.23;3.20;;;;;;;0.57;100.00;100986.56;6107473;23;20021;-78
2022/02/03 07:08:53;;;;;;;11.03;3.50;;;;;;;0.59;100.00;100981.41;6131862;23;20028;-78
2022/02/03 07:11:21;;;;;;;7.80;3.57;;;;;;;0.59;100.00;100971.91;6152829;23;20025;-78
2022/02/03 07:13:48;;;;;;;7.47;3.37;;;;;;;0.60;100.00;100983.19;6107933;23;20560;-78
2022/02/03 07:16:15;;;;;;;10.43;3.40;;;;;;;0.63;100.00;100972.84;6129869;23;20083;-79
2022/02/03 07:18:41;;;;;;;11.33;3.20;;;;;;;0.77;100.00;100981.88;6131968;23;20029;-78
2022/02/03 07:21:12;;;;;;;9.60;3.80;;;;;;;0.74;100.00;100982.66;6104222;23;20029;-78
2022/02/03 07:23:39;;;;;;;7.83;2.90;;;;;;;0.71;100.00;100984.31;6107580;23;20212;-78
2022/02/03 07:26:06;;;;;;;8.10;2.63;;;;;;;0.74;100.00;100981.78;6130100;23;20067;-78
2022/02/03 07:28:34;;;;;;;5.70;2.87;;;;;;;0.72;100.00;100973.09;6107679;23;20047;-79
2022/02/03 07:31:03;;;;;;;8.87;3.03;;;;;;;0.76;100.00;100972.34;6129478;23;20021;-78
2022/02/03 07:33:33;;;;;;;17.77;3.90;;;;;;;0.77;100.00;100974.97;6156812;23;20021;-78
2022/02/03 07:35:59;;;;;;;5.37;2.87;;;;;;;0.77;100.00;100974.09;6130315;23;20021;-79
2022/02/03 07:38:26;;;;;;;8.23;2.77;;;;;;;0.81;100.00;100976.78;6156393;23;20021;-78
2022/02/03 07:40:53;;;;;;;8.77;3.23;;;;;;;0.82;100.00;100975.94;6129040;23;20345;-78
2022/02/03 07:43:21;;;;;;;12.27;4.00;;;;;;;0.85;100.00;100977.75;6148920;23;20018;-85
2022/02/03 07:45:48;;;;;;;10.87;3.30;;;;;;;0.90;100.00;100970.91;6101501;23;20028;-85
2022/02/03 07:48:18;;;;;;;7.03;2.60;;;;;;;0.91;100.00;100966.59;6127036;23;20080;-84
2022/02/03 07:50:45;;;;;;;9.10;3.20;;;;;;;0.94;100.00;100970.16;6123765;23;20022;-84
2022/02/03 07:53:12;;;;;;;18.20;3.63;;;;;;;0.95;100.00;100971.03;6101324;23;20049;-85
2022/02/03 07:55:38;;;;;;;11.27;2.83;;;;;;;0.96;100.00;100978.88;6101153;23;20021;-85
2022/02/03 07:58:05;;;;;;;11.40;2.93;;;;;;;0.99;100.00;100981.53;6127458;23;20081;-84
2022/02/03 08:00:32;;;;;;;8.63;3.40;;;;;;;1.00;100.00;100967.69;6150104;23;20029;-84
2022/02/03 08:03:15;;;;;;;9.30;2.87;;;;;;;1.07;100.00;100979.13;6111414;23;20045;-85
2022/02/03 08:05:45;;;;;;;10.27;3.13;;;;;;;1.14;100.00;100970.59;6103545;23;20528;-85
2022/02/03 08:10:51;;;;;;;7.53;2.97;;;;;;;1.25;100.00;100970.84;6128518;23;20021;-85
2022/02/03 08:13:25;;;;;;;9.53;3.87;;;;;;;1.28;100.00;100968.31;6105660;23;20021;-84
2022/02/03 08:15:59;;;;;;;10.93;3.10;;;;;;;1.30;100.00;100970.09;6128750;23;20021;-84
2022/02/03 08:18:33;;;;;;;15.13;5.37;;;;;;;1.40;100.00;100956.44;6131974;23;20104;-85
2022/02/03 08:21:04;;;;;;;8.70;3.30;;;;;;;1.49;100.00;100953.16;6102231;23;20096;-83
2022/02/03 08:26:25;;;;;;;11.47;4.53;;;;;;;1.63;100.00;100945.63;6128938;23;20036;-83
2022/02/03 08:31:51;;;;;;;11.10;3.70;;;;;;;1.81;100.00;100937.31;6127297;23;20489;-85
2022/02/03 08:34:10;;;;;;;7.23;3.13;;;;;;;1.87;100.00;100937.44;6132644;23;20219;-85
2022/02/03 08:36:39;;;;;;;16.03;3.40;;;;;;;1.94;100.00;100932.38;6128215;23;20021;-84
2022/02/03 08:39:09;;;;;;;13.47;3.67;;;;;;;2.02;100.00;100931.59;6105309;23;20053;-85
2022/02/03 08:41:35;;;;;;;8.77;2.90;;;;;;;2.05;100.00;100932.56;6102786;23;20022;-86
2022/02/03 08:44:03;;;;;;;8.90;3.47;;;;;;;2.15;100.00;100926.66;6105337;23;20025;-84
2022/02/03 08:46:30;;;;;;;15.50;4.23;;;;;;;2.15;100.00;100924.03;6103596;23;20068;-84
2022/02/03 08:48:57;;;;;;;9.37;2.83;;;;;;;2.30;100.00;100909.53;6130023;23;20561;-85
2022/02/03 08:51:24;;;;;;;12.47;3.03;;;;;;;2.38;100.00;100910.53;6103312;23;20017;-83
2022/02/03 08:53:55;;;;;;;9.23;3.00;;;;;;;2.41;100.00;100911.47;6105046;23;20504;-85
2022/02/03 08:56:30;;;;;;;14.37;4.17;;;;;;;2.53;100.00;100908.19;6103626;23;20017;-84
2022/02/03 09:58:23;;;;;;;9.53;4.30;;;;;;;4.21;100.00;100853.69;6132349;23;20017;-85
2022/02/03 10:01:06;;;;;;;8.30;3.50;;;;;;;4.35;100.00;100863.38;6131183;23;20360;-84
2022/02/03 10:08:34;;;;;;;7.13;4.30;;;;;;;4.79;100.00;100834.88;6132088;23;20096;-84
2022/02/03 10:11:26;;;;;;;7.93;3.13;;;;;;;4.80;100.00;100827.06;6103951;23;20025;-85
2022/02/03 10:13:55;;;;;;;5.47;2.87;;;;;;;4.97;100.00;100821.03;6106262;23;20026;-85
2022/02/03 10:16:31;;;;;;;7.57;2.80;;;;;;;5.00;100.00;100819.31;6104313;23;20021;-84
2022/02/03 10:19:17;;;;;;;8.57;2.97;;;;;;;5.09;100.00;100816.72;6129927;23;20108;-84
2022/02/03 10:21:48;;;;;;;7.20;2.90;;;;;;;5.04;100.00;100815.84;6107898;23;20030;-85
2022/02/03 10:24:17;;;;;;;7.77;3.10;;;;;;;5.08;100.00;100806.25;6111615;23;20028;-85
2022/02/03 10:26:48;;;;;;;6.53;2.97;;;;;;;5.09;100.00;100811.47;6104584;23;20112;-84
2022/02/03 10:29:26;;;;;;;13.17;3.80;;;;;;;5.15;100.00;100809.78;6106305;23;20041;-84
2022/02/03 10:31:53;;;;;;;12.70;4.63;;;;;;;5.13;100.00;100803.63;6133341;23;20032;-84
2022/02/03 10:34:26;;;;;;;9.57;3.93;;;;;;;5.15;100.00;100796.69;6105633;23;20350;-84
2022/02/03 10:53:02;;;;;;;10.33;3.83;;;;;;;5.33;100.00;100787.13;6154837;23;20021;-85
2022/02/03 10:58:47;;;;;;;6.37;3.23;;;;;;;5.25;100.00;100775.75;6133792;23;20460;-84
2022/02/03 11:01:33;;;;;;;6.37;2.73;;;;;;;5.14;100.00;100774.84;6131392;23;20027;-83
2022/02/03 11:09:47;;;;;;;9.53;3.00;;;;;;;5.25;100.00;100767.03;6131571;23;20031;-83
2022/02/03 11:12:35;;;;;;;7.67;3.77;;;;;;;5.17;100.00;100753.03;6115107;23;20076;-83
2022/02/03 11:15:02;;;;;;;6.60;3.60;;;;;;;5.20;100.00;100753.03;6107769;23;20033;-83
2022/02/03 11:17:30;;;;;;;6.33;3.17;;;;;;;5.17;100.00;100753.03;6109710;23;20064;-84
2022/02/03 11:19:59;;;;;;;8.50;3.30;;;;;;;5.23;100.00;100753.06;6107939;23;20029;-84
2022/02/03 11:22:42;;;;;;;8.30;3.40;;;;;;;5.24;100.00;100754.78;6108008;23;20017;-85
2022/02/03 11:25:31;;;;;;;11.93;4.97;;;;;;;5.28;100.00;100748.69;6134181;23;20025;-84
2022/02/03 11:45:09;;;;;;;8.27;3.77;;;;;;;5.41;100.00;100737.38;6152083;23;20365;-85
2022/02/03 12:04:07;;;;;;;7.23;3.23;;;;;;;5.25;100.00;100707.66;6129777;23;20047;-85
2022/02/03 12:17:53;;;;;;;8.83;4.07;;;;;;;5.18;100.00;100686.69;6153027;23;20463;-85
2022/02/03 12:20:42;;;;;;;11.50;5.15;;;;;;;5.19;100.00;100688.41;6127641;23;20104;-85
2022/02/03 12:23:45;;;;;;;13.10;6.80;;;;;;;5.20;100.00;100682.31;6111333;23;20041;-85
2022/02/03 12:26:26;;;;;;;8.43;4.73;;;;;;;5.15;100.00;100669.22;6139170;23;20022;-85
2022/02/03 12:28:56;;;;;;;9.03;4.77;;;;;;;5.13;100.00;100673.59;6142815;23;20029;-85
2022/02/03 12:31:52;;;;;;;11.63;4.63;;;;;;;5.16;100.00;100667.47;6114785;23;20033;-85
2022/02/03 12:37:14;;;;;;;10.03;5.00;;;;;;;5.22;100.00;100662.25;6150095;23;20025;-84
2022/02/03 12:39:55;;;;;;;7.07;4.57;;;;;;;5.27;100.00;100661.38;6130251;23;20029;-83
2022/02/03 12:45:40;;;;;;;10.57;4.50;;;;;;;5.26;100.00;100650.91;6126647;23;20338;-82
2022/02/03 12:48:01;;;;;;;5.53;4.20;;;;;;;5.30;100.00;100643.06;6131358;23;20110;-85
2022/02/03 12:50:31;;;;;;;8.93;4.43;;;;;;;5.29;100.00;100646.53;6105619;23;20021;-86
2022/02/03 12:52:59;;;;;;;7.57;3.67;;;;;;;5.29;100.00;100653.50;6129609;23;20032;-84
2022/02/03 12:55:36;;;;;;;7.37;4.50;;;;;;;5.32;100.00;100638.69;6104200;23;20029;-86
2022/02/03 12:58:16;;;;;;;7.47;4.40;;;;;;;5.27;100.00;100639.53;6104771;23;20124;-87
2022/02/03 13:00:54;;;;;;;7.23;4.23;;;;;;;5.26;100.00;100640.41;6125874;23;20475;-86
2022/02/03 13:03:43;;;;;;;7.50;4.07;;;;;;;5.22;100.00;100630.81;6104099;23;20080;-84
2022/02/03 13:06:16;;;;;;;6.43;4.03;;;;;;;5.30;100.00;100627.34;6103928;23;20030;-84
2022/02/03 13:08:46;;;;;;;5.97;3.70;;;;;;;5.30;100.00;100629.09;6102792;23;20029;-86
2022/02/03 13:14:08;;;;;;;7.23;3.83;;;;;;;5.28;100.00;100620.31;6150599;23;20453;-82
2022/02/03 13:16:35;;;;;;;7.17;3.63;;;;;;;5.27;100.00;100626.44;6104891;23;20025;-86
2022/02/03 13:24:39;;;;;;;5.70;3.70;;;;;;;5.36;100.00;100610.72;6127208;23;20515;-85
2022/02/03 13:27:16;;;;;;;6.27;3.47;;;;;;;5.26;100.00;100612.47;6130388;23;20052;-85
2022/02/03 13:29:55;;;;;;;5.70;4.00;;;;;;;5.24;100.00;100606.38;6103003;23;20036;-84
2022/02/03 13:32:32;;;;;;;7.00;4.40;;;;;;;5.27;100.00;100602.88;6128961;23;20100;-84
2022/02/03 13:35:11;;;;;;;5.73;4.00;;;;;;;5.25;100.00;100600.25;6101718;23;20053;-86
2022/02/03 13:37:45;;;;;;;5.20;3.70;;;;;;;5.27;100.00;100597.63;6104409;23;20028;-84
2022/02/03 13:40:19;;;;;;;7.30;4.90;;;;;;;5.27;100.00;100597.63;6103169;23;20033;-84
2022/02/03 13:42:49;;;;;;;6.87;4.30;;;;;;;5.26;100.00;100591.53;6101886;23;20033;-85
2022/02/03 13:45:19;;;;;;;6.33;4.07;;;;;;;5.23;100.00;100588.03;6124313;23;20285;-82
2022/02/03 13:47:48;;;;;;;6.10;4.70;;;;;;;5.24;100.00;100588.03;6101519;23;20033;-83
2022/02/03 13:50:23;;;;;;;7.83;4.97;;;;;;;5.24;100.00;100585.41;6099732;23;20396;-84
2022/02/03 13:53:01;;;;;;;5.97;4.13;;;;;;;5.32;100.00;100580.19;6127158;23;20424;-85
2022/02/03 14:20:43;;;;;;;9.37;6.53;;;;;;;5.30;100.00;100566.22;6099853;23;20032;-82
2022/02/03 14:28:31;;;;;;;6.83;4.97;;;;;;;5.24;100.00;100553.97;6107397;23;20630;-81
2022/02/03 14:31:02;;;;;;;7.57;5.10;;;;;;;5.24;100.00;100548.75;6101070;23;20029;-82
2022/02/03 14:33:33;;;;;;;9.40;6.20;;;;;;;5.37;100.00;100541.72;6080278;23;20289;-81
2022/02/03 14:36:22;;;;;;;8.63;6.40;;;;;;;5.40;100.00;100536.50;6101883;23;20021;-82
2022/02/03 14:38:57;;;;;;;7.90;6.27;;;;;;;5.35;100.00;100543.50;6108277;23;20076;-81
2022/02/03 14:41:35;;;;;;;10.50;5.73;;;;;;;5.35;100.00;100551.34;6079415;23;20041;-82
2022/02/03 14:44:03;;;;;;;10.70;6.23;;;;;;;5.32;100.00;100538.25;6081784;23;20052;-82
2022/02/03 14:46:31;;;;;;;9.23;6.83;;;;;;;5.41;100.00;100543.50;6102160;23;20349;-84
2022/02/03 14:48:58;;;;;;;10.10;6.87;;;;;;;5.39;100.00;100537.38;6108608;23;20018;-81
2022/02/03 14:51:33;;;;;;;10.43;5.87;;;;;;;5.34;100.00;100524.28;6077133;23;20359;-81
2022/02/03 14:59:14;;;;;;;10.03;7.37;;;;;;;5.34;100.00;100520.78;6106830;23;20021;-84
2022/02/03 15:01:41;;;;;;;10.13;6.37;;;;;;;5.31;100.00;100518.19;6077486;23;20052;-82
2022/02/03 15:04:15;;;;;;;9.33;6.03;;;;;;;5.31;100.00;100518.19;6103372;23;20029;-85
2022/02/03 15:06:50;;;;;;;11.05;7.35;;;;;;;5.35;100.00;100526.03;6078866;23;20460;-85
2022/02/03 15:09:45;;;;;;;9.07;6.57;;;;;;;5.39;100.00;100524.28;6080387;23;20068;-82
2022/02/03 15:12:25;;;;;;;11.33;7.03;;;;;;;5.40;100.00;100527.78;6105473;23;20029;-83
2022/02/03 15:14:51;;;;;;;12.93;7.73;;;;;;;5.34;100.00;100524.28;6122892;23;20032;-82
2022/02/03 15:17:21;;;;;;;11.13;6.50;;;;;;;5.34;100.00;100520.78;6108102;23;20025;-82
2022/02/03 15:19:49;;;;;;;11.70;7.53;;;;;;;5.35;100.00;100517.28;6106670;23;20507;-82
2022/02/03 15:22:15;;;;;;;11.83;7.30;;;;;;;5.33;100.00;100514.69;6107597;23;20025;-82
2022/02/03 15:24:42;;;;;;;13.23;8.03;;;;;;;5.29;100.00;100512.06;6156053;23;20048;-86
2022/02/03 15:27:10;;;;;;;10.73;8.07;;;;;;;5.33;100.00;100508.56;6129997;23;20021;-82
2022/02/03 15:29:36;;;;;;;11.07;7.63;;;;;;;5.33;100.00;100504.22;6107938;23;20168;-85
2022/02/03 15:32:03;;;;;;;11.70;8.30;;;;;;;5.36;100.00;100508.56;6105845;23;20028;-82
2022/02/03 15:34:36;;;;;;;12.60;7.97;;;;;;;5.31;100.00;100511.19;6133576;23;20059;-81
2022/02/03 15:37:15;;;;;;;13.03;7.73;;;;;;;5.32;100.00;100510.31;6130639;23;20444;-81
2022/02/03 15:39:49;;;;;;;13.90;8.07;;;;;;;5.35;100.00;100504.19;6109479;23;20027;-81
2022/02/03 15:42:24;;;;;;;;;;;;;;;5.31;100.00;100500.72;6157048;23;20425;-82
2022/02/03 15:44:53;;;;;;;11.77;7.90;;;;;;;5.31;100.00;100492.88;6108574;23;19970;-82
2022/02/03 15:47:33;;;;;;;14.77;8.60;;;;;;;5.35;100.00;100493.72;6107495;23;20025;-82
2022/02/03 16:19:21;;;;;;;23.13;12.17;;;;;;;5.45;100.00;100481.47;6135751;23;20024;-85
2022/02/03 16:21:57;;;;;;;15.73;9.07;;;;;;;5.42;100.00;100479.75;6108201;23;20020;-82
2022/02/03 16:40:46;;;;;;;20.80;11.53;;;;;;;5.46;100.00;100470.09;6132538;23;20020;-82
2022/02/03 16:41:09;;;;;;;16.93;10.33;;;;;;;5.41;100.00;100461.41;6135605;23;20020;-82
2022/02/03 16:52:07;;;;;;;17.57;10.17;;;;;;;5.48;100.00;100461.38;6134419;23;20024;-81
2022/02/03 16:54:34;;;;;;;14.57;9.90;;;;;;;5.48;100.00;100456.16;6112637;23;20029;-81
2022/02/03 16:57:10;;;;;;;16.40;10.73;;;;;;;5.53;100.00;100459.59;6107497;23;20021;-81
2022/02/03 16:59:45;;;;;;;16.37;9.83;;;;;;;5.51;100.00;100461.38;6111137;23;20016;-81
2022/02/03 17:02:11;;;;;;;17.30;11.47;;;;;;;5.49;100.00;100460.50;6109587;23;20029;-81
2022/02/03 17:04:38;;;;;;;19.43;13.23;;;;;;;5.51;100.00;100452.63;6134179;23;20048;-81
2022/02/03 17:07:05;;;;;;;20.07;12.50;;;;;;;5.51;100.00;100455.25;6132079;23;20024;-82
2022/02/03 17:09:32;;;;;;;18.83;12.33;;;;;;;5.51;100.00;100464.00;6109591;23;20040;-82
2022/02/03 17:11:59;;;;;;;17.13;11.07;;;;;;;5.51;100.00;100455.25;6107474;23;20100;-82
2022/02/03 17:14:28;;;;;;;20.13;12.60;;;;;;;5.59;100.00;100454.34;6109264;23;20535;-83
2022/02/03 17:16:55;;;;;;;22.80;13.97;;;;;;;5.65;100.00;100445.59;6156635;23;20017;-83
2022/02/03 17:19:22;;;;;;;22.93;14.73;;;;;;;5.57;100.00;100450.88;6158273;23;20079;-82
2022/02/03 17:21:49;;;;;;;20.33;13.50;;;;;;;5.60;100.00;100447.38;6131070;23;20025;-82
2022/02/03 17:24:15;;;;;;;23.13;13.63;;;;;;;5.62;100.00;100440.34;6133159;23;20025;-82
2022/02/03 17:29:23;;;;;;;23.63;13.90;;;;;;;5.60;100.00;100444.75;6134878;23;20508;-83
2022/02/03 17:31:59;;;;;;;;;;;;;;;5.61;100.00;100441.25;6109768;23;20471;-83
2022/02/03 18:08:32;;;;;;;;;;;;;;;5.61;100.00;100442.09;6140424;23;20408;-82
2022/02/03 18:28:03;;;;;;;22.70;14.07;;;;;;;5.64;100.00;100436.88;6158296;23;20472;-81
2022/02/03 18:45:56;;;;;;;24.90;13.97;;;;;;;5.72;100.00;100415.88;6115847;23;20025;-81
2022/02/03 18:54:33;;;;;;;24.70;13.93;;;;;;;5.72;100.00;100407.13;6131263;23;20048;-83
2022/02/03 19:15:51;;;;;;;27.00;15.07;;;;;;;5.71;100.00;100384.41;6131434;23;20075;-83
2022/02/03 19:24:18;;;;;;;28.60;14.43;;;;;;;5.67;100.00;100385.31;6154016;23;20523;-81
2022/02/03 19:27:08;;;;;;;31.35;15.27;;;;;;;5.67;100.00;100378.31;6159801;23;20456;-81
2022/02/03 20:01:04;;;;;;;32.37;16.60;;;;;;;5.76;100.00;100365.16;6132324;23;20025;-80
2022/02/03 20:03:26;;;;;;;28.93;14.20;;;;;;;5.75;100.00;100354.69;6156719;23;20027;-81
2022/02/03 20:06:04;;;;;;;28.30;15.33;;;;;;;5.75;100.00;100352.06;6136516;23;20044;-80
2022/02/03 20:08:40;;;;;;;24.87;14.40;;;;;;;5.76;100.00;100351.19;6136504;23;20039;-81
2022/02/03 20:11:09;;;;;;;26.07;14.00;;;;;;;5.78;100.00;100354.66;6107488;23;20025;-81
2022/02/03 20:13:36;;;;;;;29.97;15.73;;;;;;;5.75;100.00;100354.69;6131611;23;20099;-82
2022/02/03 20:16:04;;;;;;;26.60;16.47;;;;;;;5.73;100.00;100359.09;6106055;23;20396;-81
2022/02/03 20:18:31;;;;;;;30.77;15.47;;;;;;;5.78;100.00;100354.66;6107040;23;20356;-81
2022/02/03 20:20:58;;;;;;;27.30;15.23;;;;;;;5.76;100.00;100352.06;6128700;23;20036;-82
2022/02/03 20:23:25;;;;;;;25.67;13.97;;;;;;;5.76;100.00;100351.19;6131861;23;20079;-81
2022/02/03 20:25:57;;;;;;;28.17;14.13;;;;;;;5.77;100.00;100350.31;6104104;23;20031;-81
2022/02/03 20:28:25;;;;;;;25.57;13.47;;;;;;;5.76;100.00;100352.06;6105206;23;20036;-80
2022/02/03 20:30:52;;;;;;;23.77;13.00;;;;;;;5.75;100.00;100347.69;6126866;23;20024;-81
2022/02/03 20:33:20;;;;;;;27.80;14.53;;;;;;;5.70;100.00;100344.22;6155705;23;20024;-79
2022/02/03 20:35:47;;;;;;;24.90;13.57;;;;;;;5.69;100.00;100344.25;6105661;23;20032;-79
2022/02/03 20:38:15;;;;;;;24.13;13.87;;;;;;;5.76;100.00;100348.56;6107027;23;20029;-81
2022/02/03 20:40:45;;;;;;;26.00;14.20;;;;;;;5.76;100.00;100348.56;6152994;23;20017;-83
2022/02/03 20:43:13;;;;;;;20.50;11.53;;;;;;;5.73;100.00;100341.59;6130637;23;20028;-79
2022/02/03 20:45:41;;;;;;;20.80;12.23;;;;;;;5.72;100.00;100338.97;6128868;23;20087;-79
2022/02/03 20:48:07;;;;;;;24.13;13.07;;;;;;;5.73;100.00;100341.59;6155179;23;20025;-79
2022/02/03 20:50:36;;;;;;;25.63;14.00;;;;;;;5.72;100.00;100336.34;6103754;23;20017;-82
2022/02/03 20:53:04;;;;;;;22.63;13.00;;;;;;;5.72;100.00;100337.25;6130749;23;20025;-79
2022/02/03 20:55:30;;;;;;;28.43;14.63;;;;;;;5.74;100.00;100335.47;6153389;23;20025;-80
2022/02/03 20:57:58;;;;;;;23.43;12.87;;;;;;;5.74;100.00;100337.22;6106936;23;20024;-79
2022/02/03 21:00:41;;;;;;;22.23;11.77;;;;;;;5.71;100.00;100332.00;6152790;23;20021;-79
2022/02/03 21:03:17;;;;;;;22.97;12.77;;;;;;;5.73;100.00;100328.50;6110325;23;20044;-81
2022/02/03 21:05:45;;;;;;;24.40;13.40;;;;;;;5.71;100.00;100334.59;6106613;23;20348;-80
2022/02/03 21:08:12;;;;;;;23.40;13.00;;;;;;;5.66;100.00;100334.66;6154801;23;20452;-80
2022/02/03 21:10:39;;;;;;;23.67;14.37;;;;;;;5.77;100.00;100329.34;6152943;23;20072;-80
2022/02/03 21:13:05;;;;;;;20.93;12.67;;;;;;;5.72;100.00;100336.34;6106624;23;20021;-80
2022/02/03 21:15:36;;;;;;;23.43;12.00;;;;;;;5.72;100.00;100338.97;6128728;23;20515;-81
2022/02/03 21:18:07;;;;;;;23.77;13.07;;;;;;;5.73;100.00;100330.25;6130407;23;20584;-82
2022/02/03 21:20:35;;;;;;;21.20;11.87;;;;;;;5.70;100.00;100335.50;6128707;23;20021;-79
2022/02/03 21:23:04;;;;;;;18.13;10.33;;;;;;;5.72;100.00;100336.34;6155801;23;20047;-80
2022/02/03 21:25:35;;;;;;;21.87;12.03;;;;;;;5.76;100.00;100325.84;6128816;23;20095;-80
2022/02/03 21:28:09;;;;;;;18.80;10.33;;;;;;;5.76;100.00;100335.47;6131295;23;20111;-80
2022/02/03 21:30:36;;;;;;;18.85;10.38;;;;;;;5.76;100.00;100331.09;6103727;23;20021;-82
2022/02/03 21:33:05;;;;;;;16.03;9.27;;;;;;;5.71;100.00;100332.00;6106189;23;20033;-84
2022/02/03 21:35:32;;;;;;;21.57;11.63;;;;;;;5.71;100.00;100329.38;6128668;23;20100;-79
2022/02/03 21:37:59;;;;;;;21.17;11.63;;;;;;;5.73;100.00;100335.50;6154838;23;20655;-79
2022/02/03 21:40:26;;;;;;;19.43;11.10;;;;;;;5.68;100.00;100329.41;6103497;23;20025;-79
2022/02/03 21:42:53;;;;;;;21.67;11.10;;;;;;;5.64;100.00;100321.56;6154799;23;20032;-80
2022/02/03 21:45:22;;;;;;;21.17;11.23;;;;;;;5.64;100.00;100324.19;6103640;23;20804;-82
2022/02/03 21:47:50;;;;;;;18.57;10.17;;;;;;;5.63;100.00;100318.94;6106370;23;20028;-80